Terminal Aerodrome Forecast
Issued by NWS Denver/Boulder, CO

Home | Current Version | Previous Version | Text Only | Print | Product List | Glossary On
Versions: 1 2 3 4 5 6 7 8 9 10 11 12 13 14 15 16 17 18 19 20 21 22 23 24 25 26 27 28 29 30 31 32 33 34 35 36 37 38 39 40 41 42 43 44 45 46 47 48 49 50
965
FTUS45 KBOU 270717 AAA
TAFDEN
TAF AMD
KDEN 270717Z 2707/2812 08005KT P6SM SCT090 BKN120
     FM270900 34005KT P6SM SCT080 BKN120
     FM271100 34008KT P6SM VCSH SCT060 BKN080 OVC120
     FM271600 35013KT P6SM SCT040 BKN060
      TEMPO 2716/2720 -SHRA SCT030 OVC050
     FM272100 32013G21KT P6SM SCT070 BKN100
     FM280100 05010KT P6SM SCT060 BKN100
     FM280500 23010KT P6SM SCT100 BKN140=

USA.gov is the U.S. government's official web portal to all federal, state and local government web resources and services.